KGDV/GDV METAR and TAF weather

Enter ICAO airport designator
Station Type Date Time Source
KGDV METAR 2020/09/23 19:56 UTC NOAA

KGDV 231956Z AUTO 32006KT 10SM CLR 24/07 A2999 RMK AO2 SLP139 T02440067


Station Type Date Time Source
KGDV Decoded METAR 2020/09/23 19:56 UTC NOAA

Glendive, Dawson Community Airport, MT, United States (KGDV) 47-08N 104-48W
Sep 23, 2020 - 03:56 PM EDT / 2020.09.23 1956 UTC
Wind: from the NW (320 degrees) at 7 MPH (6 KT):0
Visibility: 10 mile(s):0
Sky conditions: clear
Temperature: 75.9 F (24.4 C)
Dew Point: 44.1 F (6.7 C)
Relative Humidity: 32%
Pressure (altimeter): 29.99 in. Hg (1015 hPa)
ob: KGDV 231956Z AUTO 32006KT 10SM CLR 24/07 A2999 RMK AO2 SLP139 T02440067
cycle: 20

Station Type Date Time Source
KGDV TAF 2020/09/23 18:22 UTC NOAA

TAF KGDV 231720Z 2318/2418 34007KT P6SM FEW180
FM241500 19009KT P6SM FEW150
FM241700 21012G20KT P6SM FEW150

Example: see airport list